Search for airport 
image banner adimage banner adimage banner ad
image banner ad

05CA - Lost Hills Sheriff's Station

Located in Calabasas, United States

ICAO - 05CA, IATA -

Data provided by Airmate  

General information

Coordinates: N34°8'12" W118°42'53"
Elevation is 888 feet MSL.
Magnetic variation is 14° East
View others Airports in California

Operational data

Special qualification required
Current time UTC:
Current local time:
Weather at : KVNY - Van Nuys ( 22 km )
METAR: KVNY 221451Z 00000KT 10SM CLR 19/14 A2993 RMK AO2 SLP126 T01890139 53001
TAF: KVNY 221136Z 2212/2312 VRB03KT P6SM SKC FM222000 14008KT P6SM SKC FM230400 VRB03KT P6SM SKC
View NOTAMs / SUP AIP / TFR affecting this airport [VIEW]
Communications frequencies: [VIEW]

Runways:

Airport contact information

Address: Calabasas United States

Satellite view of 05CA